createdAt,value
2022-11-26T00:00:52.731Z,11.43
2022-11-26T00:03:19.537Z,11.61
2022-11-26T00:05:48.744Z,11.53
2022-11-26T00:08:35.490Z,11.50
2022-11-26T00:11:02.694Z,11.43
2022-11-26T00:13:30.985Z,11.27
2022-11-26T00:15:57.526Z,11.04
2022-11-26T00:18:26.556Z,10.98
2022-11-26T00:21:00.014Z,10.88
2022-11-26T00:23:27.811Z,11.06
2022-11-26T00:25:57.327Z,11.19
2022-11-26T00:28:33.979Z,11.16
2022-11-26T00:31:03.143Z,11.02
2022-11-26T00:33:30.624Z,11.01
2022-11-26T00:36:20.294Z,10.99
2022-11-26T00:38:47.847Z,10.75
2022-11-26T00:41:19.405Z,10.74
2022-11-26T00:43:46.885Z,10.65
2022-11-26T00:46:22.686Z,10.75
2022-11-26T00:48:49.557Z,10.35
2022-11-26T00:51:23.115Z,10.55
2022-11-26T00:53:50.093Z,10.30
2022-11-26T00:56:19.651Z,10.67
2022-11-26T00:58:47.069Z,10.36
2022-11-26T01:01:17.598Z,10.12
2022-11-26T01:03:44.178Z,10.58
2022-11-26T01:06:18.176Z,10.71
2022-11-26T01:08:44.958Z,10.87
2022-11-26T01:11:17.173Z,11.02
2022-11-26T01:13:45.073Z,10.41
2022-11-26T01:16:29.804Z,10.42
2022-11-26T01:18:58.634Z,10.75
2022-11-26T01:21:27.699Z,10.73
2022-11-26T01:23:54.164Z,10.63
2022-11-26T01:26:23.497Z,10.60
2022-11-26T01:28:50.290Z,10.61
2022-11-26T01:31:19.424Z,10.87
2022-11-26T01:33:46.594Z,10.76
2022-11-26T01:36:38.203Z,10.73
2022-11-26T01:39:10.415Z,10.63
2022-11-26T01:41:40.434Z,10.54
2022-11-26T01:44:08.712Z,10.68
2022-11-26T01:46:36.628Z,10.89
2022-11-26T01:49:35.609Z,10.88
2022-11-26T01:52:04.985Z,10.51
2022-11-26T01:54:33.219Z,10.76
2022-11-26T01:57:07.558Z,10.70
2022-11-26T01:59:37.241Z,10.69
2022-11-26T02:02:03.786Z,10.87
2022-11-26T02:04:37.425Z,10.43
2022-11-26T02:07:04.599Z,10.69
2022-11-26T02:09:31.615Z,10.60
2022-11-26T02:11:58.122Z,10.52
2022-11-26T02:14:28.850Z,10.31
2022-11-26T02:17:07.498Z,10.56
2022-11-26T02:19:58.412Z,10.93
2022-11-26T02:22:46.725Z,10.81
2022-11-26T02:25:43.316Z,11.18
2022-11-26T02:28:33.434Z,10.96
2022-11-26T02:31:08.427Z,10.88
2022-11-26T02:34:03.966Z,10.76
2022-11-26T02:36:50.788Z,11.59
2022-11-26T02:39:22.700Z,11.32
2022-11-26T02:41:55.095Z,11.19
2022-11-26T02:44:24.440Z,11.25
2022-11-26T02:49:22.448Z,11.05
2022-11-26T02:51:53.734Z,11.19
2022-11-26T02:54:21.294Z,10.76
2022-11-26T02:56:48.711Z,11.10
2022-11-26T02:59:15.968Z,11.13
2022-11-26T03:01:50.375Z,11.00
2022-11-26T03:04:20.639Z,11.14
2022-11-26T03:06:47.402Z,10.98
2022-11-26T03:09:17.645Z,10.94
2022-11-26T03:11:44.965Z,10.63
2022-11-26T03:14:11.444Z,10.53
2022-11-26T03:16:38.067Z,10.49
2022-11-26T03:19:04.614Z,10.42
2022-11-26T03:21:34.416Z,10.39
2022-11-26T03:24:01.021Z,10.30
2022-11-26T03:26:27.492Z,10.60
2022-11-26T03:28:54.028Z,10.68
2022-11-26T03:31:20.836Z,10.50
2022-11-26T03:33:47.360Z,10.63
2022-11-26T03:36:13.791Z,10.74
2022-11-26T03:38:40.375Z,10.23
2022-11-26T03:41:06.849Z,10.70
2022-11-26T03:43:33.347Z,10.77
2022-11-26T03:45:59.871Z,10.32
2022-11-26T03:48:26.377Z,10.56
2022-11-26T03:50:52.914Z,10.42
2022-11-26T03:53:20.327Z,10.34
2022-11-26T03:55:47.591Z,10.26
2022-11-26T03:58:14.204Z,9.99
2022-11-26T04:00:40.797Z,10.14
2022-11-26T04:03:07.309Z,10.04
2022-11-26T04:05:33.818Z,9.54
2022-11-26T04:08:00.345Z,10.04
2022-11-26T04:10:27.968Z,10.07
2022-11-26T04:12:54.629Z,10.16
2022-11-26T04:15:21.064Z,10.06
2022-11-26T04:17:47.553Z,10.06
2022-11-26T04:20:14.280Z,10.17
2022-11-26T04:22:41.132Z,9.68
2022-11-26T04:25:08.000Z,10.00
2022-11-26T04:27:34.715Z,10.01
2022-11-26T04:30:01.187Z,10.18
2022-11-26T04:32:27.751Z,9.99
2022-11-26T04:34:54.497Z,10.21
2022-11-26T04:37:21.055Z,10.26
2022-11-26T04:39:47.504Z,10.28
2022-11-26T04:42:13.982Z,10.39
2022-11-26T04:44:40.596Z,10.32
2022-11-26T04:47:07.188Z,10.61
2022-11-26T04:49:33.684Z,10.73
2022-11-26T04:52:00.124Z,10.84
2022-11-26T04:54:26.599Z,10.89
2022-11-26T04:56:53.091Z,10.89
2022-11-26T04:59:19.612Z,11.00
2022-11-26T05:01:46.211Z,10.77
2022-11-26T05:04:12.715Z,9.33
2022-11-26T05:06:39.252Z,10.41
2022-11-26T05:09:05.870Z,10.37
2022-11-26T05:11:32.303Z,10.11
2022-11-26T05:13:58.729Z,10.41
2022-11-26T05:16:25.232Z,10.42
2022-11-26T05:18:51.793Z,10.12
2022-11-26T05:21:18.273Z,10.33
2022-11-26T05:23:44.804Z,10.47
2022-11-26T05:26:11.274Z,10.03
2022-11-26T05:28:38.013Z,10.34
2022-11-26T05:31:04.926Z,10.43
2022-11-26T05:33:31.756Z,10.26
2022-11-26T05:35:58.281Z,10.56
2022-11-26T05:38:24.804Z,10.69
2022-11-26T05:40:51.393Z,10.69
2022-11-26T05:43:18.201Z,10.68
2022-11-26T05:45:44.778Z,10.47
2022-11-26T05:48:11.509Z,10.53
2022-11-26T05:50:38.019Z,10.35
2022-11-26T05:53:04.978Z,10.29
2022-11-26T05:55:31.632Z,10.36
2022-11-26T05:57:58.274Z,10.15
2022-11-26T06:00:24.802Z,10.34
2022-11-26T06:02:59.989Z,10.50
2022-11-26T06:05:27.186Z,9.86
2022-11-26T06:07:53.678Z,10.24
2022-11-26T06:10:20.280Z,9.90
2022-11-26T06:12:46.710Z,9.94
2022-11-26T06:15:13.453Z,9.81
2022-11-26T06:17:39.979Z,10.06
2022-11-26T06:20:07.017Z,9.60
2022-11-26T06:22:40.841Z,9.84
2022-11-26T06:25:09.214Z,9.63
2022-11-26T06:27:36.686Z,9.64
2022-11-26T06:30:04.865Z,9.03
2022-11-26T06:32:31.961Z,9.65
2022-11-26T06:34:58.623Z,9.71
2022-11-26T06:37:25.719Z,9.57
2022-11-26T06:39:52.464Z,9.76
2022-11-26T06:42:19.313Z,9.54
2022-11-26T06:44:46.442Z,9.35
2022-11-26T06:47:13.686Z,9.65
2022-11-26T06:49:40.645Z,9.49
2022-11-26T06:52:08.394Z,9.59
2022-11-26T06:54:34.873Z,9.77
2022-11-26T06:57:01.378Z,9.87
2022-11-26T06:59:27.949Z,9.32
2022-11-26T07:01:54.481Z,9.40
2022-11-26T07:04:21.029Z,9.91
2022-11-26T07:06:47.521Z,9.83
2022-11-26T07:09:14.339Z,10.11
2022-11-26T07:11:41.469Z,9.80
2022-11-26T07:14:08.824Z,9.85
2022-11-26T07:16:35.912Z,9.57
2022-11-26T07:19:03.290Z,9.93
2022-11-26T07:21:31.038Z,10.11
2022-11-26T07:23:58.469Z,9.53
2022-11-26T07:26:24.952Z,9.83
2022-11-26T07:28:51.500Z,10.20
2022-11-26T07:31:20.717Z,9.30
2022-11-26T07:33:47.639Z,9.42
2022-11-26T07:36:26.371Z,9.74
2022-11-26T07:38:54.701Z,9.65
2022-11-26T07:41:21.472Z,9.55
2022-11-26T07:43:48.040Z,9.55
2022-11-26T07:46:17.144Z,9.65
2022-11-26T07:48:43.944Z,9.76
2022-11-26T07:51:19.610Z,9.97
2022-11-26T07:53:46.684Z,10.19
2022-11-26T07:56:13.361Z,10.07
2022-11-26T07:58:39.866Z,9.84
2022-11-26T08:01:11.938Z,10.08
2022-11-26T08:03:43.781Z,10.10
2022-11-26T08:06:13.293Z,9.98
2022-11-26T08:08:40.127Z,10.27
2022-11-26T08:11:25.591Z,10.06
2022-11-26T08:14:00.064Z,10.26
2022-11-26T08:16:28.800Z,10.59
2022-11-26T08:18:57.376Z,10.75
2022-11-26T08:21:24.290Z,10.65
2022-11-26T08:23:52.111Z,11.04
2022-11-26T08:26:27.432Z,10.71
2022-11-26T08:29:00.156Z,11.85
2022-11-26T08:31:28.090Z,12.39
2022-11-26T08:34:01.822Z,11.23
2022-11-26T08:36:29.953Z,11.71
2022-11-26T08:38:57.027Z,11.55
2022-11-26T08:41:24.184Z,11.52
2022-11-26T08:44:07.717Z,12.44
2022-11-26T08:46:39.862Z,12.34
2022-11-26T08:49:08.386Z,11.23
2022-11-26T08:51:34.956Z,13.13
2022-11-26T08:54:02.135Z,12.93
2022-11-26T08:56:29.081Z,12.63
2022-11-26T08:58:55.734Z,13.22
2022-11-26T09:01:24.943Z,13.44
2022-11-26T09:03:53.677Z,13.61
2022-11-26T09:06:21.349Z,13.32
2022-11-26T09:09:06.470Z,12.80
2022-11-26T09:11:35.892Z,13.57
2022-11-26T09:14:02.645Z,15.14
2022-11-26T09:16:29.560Z,16.33
2022-11-26T09:18:56.416Z,19.81
2022-11-26T09:21:23.087Z,22.33
2022-11-26T09:23:49.728Z,21.45
2022-11-26T09:26:16.571Z,22.93
2022-11-26T09:28:43.063Z,23.06
2022-11-26T09:31:09.514Z,23.74
2022-11-26T09:33:36.015Z,23.03
2022-11-26T09:36:05.905Z,23.36
2022-11-26T09:38:32.982Z,24.29
2022-11-26T09:41:36.607Z,21.28
2022-11-26T09:44:22.346Z,22.81
2022-11-26T09:47:15.359Z,22.80
2022-11-26T09:49:57.225Z,23.07
2022-11-26T09:52:27.481Z,25.83
2022-11-26T09:55:03.199Z,25.10
2022-11-26T09:57:35.935Z,24.67
2022-11-26T10:00:24.505Z,23.54
2022-11-26T10:02:55.676Z,24.01
2022-11-26T10:05:27.445Z,22.76
2022-11-26T10:08:12.873Z,22.18
2022-11-26T10:11:02.567Z,22.07
2022-11-26T10:13:41.989Z,19.91
2022-11-26T10:16:25.058Z,20.73
2022-11-26T10:18:57.617Z,21.04
2022-11-26T10:21:37.943Z,23.80
2022-11-26T10:24:30.420Z,23.88
2022-11-26T10:27:04.635Z,26.01
2022-11-26T10:29:39.141Z,24.67
2022-11-26T10:32:39.277Z,24.13
2022-11-26T10:35:06.444Z,25.22
2022-11-26T10:37:32.924Z,24.12
2022-11-26T10:40:21.927Z,25.18
2022-11-26T10:42:56.734Z,25.39
2022-11-26T10:45:25.635Z,23.93
2022-11-26T10:47:52.242Z,20.73
2022-11-26T10:50:47.197Z,19.17
2022-11-26T10:53:21.324Z,19.55
2022-11-26T10:55:48.070Z,19.76
2022-11-26T10:58:17.315Z,19.64
2022-11-26T11:00:49.946Z,20.36
2022-11-26T11:03:38.271Z,20.35
2022-11-26T11:06:19.343Z,19.89
2022-11-26T11:08:52.672Z,20.99
2022-11-26T11:11:22.805Z,22.25
2022-11-26T11:13:49.690Z,23.08
2022-11-26T11:16:25.212Z,22.03
2022-11-26T11:18:56.959Z,20.31
2022-11-26T11:21:30.351Z,19.16
2022-11-26T11:24:16.558Z,17.64
2022-11-26T11:26:45.244Z,19.49
2022-11-26T11:29:33.639Z,20.77
2022-11-26T11:32:04.320Z,20.15
2022-11-26T11:34:38.477Z,21.05
2022-11-26T11:37:15.513Z,19.38
2022-11-26T11:39:42.982Z,20.88
2022-11-26T11:42:29.140Z,21.05
2022-11-26T11:44:56.772Z,21.75
2022-11-26T11:47:44.718Z,20.35
2022-11-26T11:50:20.389Z,19.48
2022-11-26T11:53:21.164Z,20.19
2022-11-26T11:56:02.226Z,20.26
2022-11-26T11:58:44.686Z,21.61
2022-11-26T12:01:14.187Z,20.05
2022-11-26T12:04:06.072Z,18.35
2022-11-26T12:06:55.173Z,21.07
2022-11-26T12:09:24.558Z,21.26
2022-11-26T12:12:24.177Z,21.71
2022-11-26T12:14:53.621Z,21.79
2022-11-26T12:17:39.782Z,22.92
2022-11-26T12:20:27.948Z,22.79
2022-11-26T12:22:59.091Z,19.33
2022-11-26T12:25:35.348Z,17.15
2022-11-26T12:28:16.298Z,16.08
2022-11-26T12:30:46.161Z,17.48
2022-11-26T12:33:17.433Z,17.49
2022-11-26T12:35:49.294Z,17.44
2022-11-26T12:38:28.404Z,17.43
2022-11-26T12:41:00.153Z,15.92
2022-11-26T12:43:50.711Z,15.26
2022-11-26T12:46:32.179Z,15.59
2022-11-26T12:49:03.871Z,15.97
2022-11-26T12:51:52.255Z,16.38
2022-11-26T12:54:42.678Z,16.48
2022-11-26T12:57:43.176Z,15.95
2022-11-26T13:00:25.256Z,15.32
2022-11-26T13:02:53.800Z,15.80
2022-11-26T13:05:47.365Z,16.19
2022-11-26T13:08:29.697Z,15.63
2022-11-26T13:11:23.620Z,15.49
2022-11-26T13:14:14.573Z,15.56
2022-11-26T13:16:50.545Z,15.61
2022-11-26T13:19:36.207Z,15.66
2022-11-26T13:22:21.544Z,16.04
2022-11-26T13:24:55.217Z,15.87
2022-11-26T13:27:53.648Z,15.34
2022-11-26T13:30:23.752Z,13.89
2022-11-26T13:33:08.623Z,15.43
2022-11-26T13:35:59.418Z,16.06
2022-11-26T13:38:35.637Z,15.69
2022-11-26T13:41:15.688Z,14.53
2022-11-26T13:44:10.326Z,15.31
2022-11-26T13:46:41.931Z,14.47
2022-11-26T13:49:28.454Z,14.57
2022-11-26T13:52:09.074Z,14.83
2022-11-26T13:54:50.003Z,14.09
2022-11-26T13:57:20.777Z,13.69
2022-11-26T13:59:49.814Z,14.23
2022-11-26T14:02:42.588Z,14.89
2022-11-26T14:05:18.538Z,14.41
2022-11-26T14:07:45.558Z,13.38
2022-11-26T14:10:34.010Z,14.50
2022-11-26T14:13:03.602Z,13.68
2022-11-26T14:15:42.451Z,13.88
2022-11-26T14:18:11.332Z,14.47
2022-11-26T14:20:59.739Z,14.46
2022-11-26T14:23:41.822Z,13.15
2022-11-26T14:26:09.909Z,13.69
2022-11-26T14:28:36.597Z,14.16
2022-11-26T14:31:12.057Z,13.90
2022-11-26T14:33:44.703Z,13.37
2022-11-26T14:36:26.486Z,13.71
2022-11-26T14:39:22.230Z,13.14
2022-11-26T14:41:48.670Z,12.72
2022-11-26T14:44:16.689Z,13.06
2022-11-26T14:46:45.398Z,13.32
2022-11-26T14:49:23.670Z,13.92
2022-11-26T14:51:50.835Z,13.56
2022-11-26T14:54:29.812Z,13.72
2022-11-26T14:56:58.155Z,14.07
2022-11-26T14:59:24.669Z,13.95
2022-11-26T15:01:51.305Z,13.69
2022-11-26T15:04:34.498Z,13.30
2022-11-26T15:07:00.963Z,13.17
2022-11-26T15:09:28.196Z,13.54
2022-11-26T15:12:04.056Z,13.62
2022-11-26T15:14:40.266Z,13.52
2022-11-26T15:17:10.482Z,13.56
2022-11-26T15:19:38.283Z,13.58
2022-11-26T15:22:18.051Z,13.09
2022-11-26T15:24:48.212Z,13.76
2022-11-26T15:27:30.208Z,13.17
2022-11-26T15:29:56.738Z,13.34
2022-11-26T15:32:28.993Z,12.78
2022-11-26T15:34:57.345Z,12.51
2022-11-26T15:37:23.806Z,12.17
2022-11-26T15:40:26.052Z,12.44
2022-11-26T15:42:56.378Z,12.21
2022-11-26T15:45:24.482Z,12.03
2022-11-26T15:47:52.461Z,12.46
2022-11-26T15:50:24.763Z,12.52
2022-11-26T15:52:55.757Z,12.37
2022-11-26T15:55:27.212Z,12.87
2022-11-26T15:57:54.002Z,12.69
2022-11-26T16:00:27.992Z,12.90
2022-11-26T16:02:55.640Z,12.58
2022-11-26T16:05:23.841Z,12.05
2022-11-26T16:07:58.485Z,12.46
2022-11-26T16:10:27.196Z,11.86
2022-11-26T16:13:27.315Z,12.01
2022-11-26T16:15:58.988Z,12.65
2022-11-26T16:18:36.687Z,12.43
2022-11-26T16:21:08.424Z,11.96
2022-11-26T16:23:35.225Z,12.04
2022-11-26T16:26:17.743Z,12.22
2022-11-26T16:28:45.762Z,12.74
2022-11-26T16:31:13.526Z,12.29
2022-11-26T16:33:40.612Z,12.66
2022-11-26T16:36:22.454Z,12.81
2022-11-26T16:38:49.200Z,12.46
2022-11-26T16:41:17.563Z,12.31
2022-11-26T16:43:44.390Z,11.88
2022-11-26T16:46:16.467Z,11.65
2022-11-26T16:48:44.538Z,11.64
2022-11-26T16:51:11.116Z,11.08
2022-11-26T16:53:38.015Z,11.62
2022-11-26T16:56:04.986Z,11.89
2022-11-26T16:58:34.534Z,11.25
2022-11-26T17:01:01.221Z,11.33
2022-11-26T17:03:32.811Z,11.40
2022-11-26T17:06:13.537Z,11.30
2022-11-26T17:08:42.841Z,11.46
2022-11-26T17:11:13.589Z,11.50
2022-11-26T17:13:40.053Z,11.38
2022-11-26T17:16:19.950Z,11.41
2022-11-26T17:18:47.258Z,12.02
2022-11-26T17:21:14.469Z,11.92
2022-11-26T17:23:40.996Z,12.18
2022-11-26T17:26:20.000Z,11.89
2022-11-26T17:28:47.069Z,11.15
2022-11-26T17:31:14.261Z,11.15
2022-11-26T17:33:41.061Z,10.97
2022-11-26T17:36:16.811Z,10.98
2022-11-26T17:38:43.927Z,10.84
2022-11-26T17:41:11.218Z,10.38
2022-11-26T17:43:38.257Z,10.69
2022-11-26T17:46:04.989Z,10.89
2022-11-26T17:48:31.591Z,10.52
2022-11-26T17:50:58.023Z,10.75
2022-11-26T17:53:24.558Z,10.61
2022-11-26T17:55:51.113Z,10.36
2022-11-26T17:58:17.620Z,10.56
2022-11-26T18:00:44.176Z,10.81
2022-11-26T18:03:10.770Z,10.22
2022-11-26T18:05:41.853Z,10.44
2022-11-26T18:08:08.808Z,10.86
2022-11-26T18:10:35.482Z,10.40
2022-11-26T18:13:02.377Z,9.71
2022-11-26T18:15:28.861Z,9.96
2022-11-26T18:17:55.702Z,10.56
2022-11-26T18:20:25.736Z,10.50
2022-11-26T18:22:54.710Z,11.09
2022-11-26T18:25:21.549Z,10.82
2022-11-26T18:27:48.171Z,10.92
2022-11-26T18:30:16.901Z,10.61
2022-11-26T18:32:43.610Z,10.43
2022-11-26T18:35:10.517Z,10.55
2022-11-26T18:37:38.321Z,10.22
2022-11-26T18:40:06.731Z,10.12
2022-11-26T18:42:37.958Z,9.80
2022-11-26T18:45:07.750Z,10.27
2022-11-26T18:47:34.410Z,10.10
2022-11-26T18:50:00.914Z,10.15
2022-11-26T18:52:27.416Z,9.86
2022-11-26T18:54:54.078Z,9.87
2022-11-26T18:57:20.602Z,9.34
2022-11-26T18:59:47.334Z,9.98
2022-11-26T19:02:14.185Z,9.88
2022-11-26T19:04:41.190Z,9.99
2022-11-26T19:07:08.864Z,9.51
2022-11-26T19:09:35.354Z,9.40
2022-11-26T19:12:02.132Z,9.55
2022-11-26T19:14:28.592Z,9.71
2022-11-26T19:16:55.214Z,9.75
2022-11-26T19:19:22.781Z,9.37
2022-11-26T19:21:50.288Z,9.35
2022-11-26T19:24:16.825Z,9.65
2022-11-26T19:26:43.322Z,9.70
2022-11-26T19:29:11.405Z,9.68
2022-11-26T19:31:39.582Z,9.93
2022-11-26T19:34:10.074Z,9.94
2022-11-26T19:36:37.565Z,10.00
2022-11-26T19:39:05.181Z,10.18
2022-11-26T19:41:32.431Z,10.57
2022-11-26T19:44:05.259Z,10.65
2022-11-26T19:46:31.906Z,9.76
2022-11-26T19:48:58.390Z,9.33
2022-11-26T19:51:26.419Z,9.21
2022-11-26T19:53:54.534Z,9.62
2022-11-26T19:56:26.488Z,9.63
2022-11-26T19:59:00.533Z,10.07
2022-11-26T20:01:30.488Z,10.05
2022-11-26T20:03:58.839Z,9.81
2022-11-26T20:06:26.739Z,10.21
2022-11-26T20:08:54.118Z,10.37
2022-11-26T20:11:20.899Z,9.65
2022-11-26T20:13:48.427Z,9.77
2022-11-26T20:16:20.955Z,9.18
2022-11-26T20:18:48.519Z,9.65
2022-11-26T20:21:19.796Z,9.01
2022-11-26T20:23:47.437Z,9.20
2022-11-26T20:26:29.342Z,9.70
2022-11-26T20:28:56.953Z,9.77
2022-11-26T20:31:24.463Z,9.80
2022-11-26T20:33:54.598Z,9.11
2022-11-26T20:36:23.128Z,9.40
2022-11-26T20:38:54.090Z,8.95
2022-11-26T20:41:20.760Z,8.72
2022-11-26T20:43:47.630Z,9.06
2022-11-26T20:46:14.753Z,8.37
2022-11-26T20:48:43.357Z,8.85
2022-11-26T20:51:12.445Z,8.86
2022-11-26T20:53:39.432Z,9.13
2022-11-26T20:56:06.648Z,8.76
2022-11-26T20:58:34.402Z,8.85
2022-11-26T21:01:01.557Z,8.64
2022-11-26T21:03:29.168Z,9.16
2022-11-26T21:05:55.768Z,9.15
2022-11-26T21:08:23.026Z,8.33
2022-11-26T21:10:50.133Z,8.54
2022-11-26T21:13:18.157Z,8.81
2022-11-26T21:15:47.405Z,9.16
2022-11-26T21:18:14.627Z,9.06
2022-11-26T21:20:42.347Z,9.05
2022-11-26T21:23:09.540Z,8.90
2022-11-26T21:25:38.220Z,9.64
2022-11-26T21:28:05.846Z,9.47
2022-11-26T21:30:33.235Z,9.65
2022-11-26T21:33:02.194Z,9.97
2022-11-26T21:35:32.154Z,10.15
2022-11-26T21:37:59.199Z,10.22
2022-11-26T21:40:27.410Z,10.58
2022-11-26T21:42:53.915Z,9.13
2022-11-26T21:45:20.648Z,9.75
2022-11-26T21:47:49.963Z,10.26
2022-11-26T21:50:16.560Z,10.22
2022-11-26T21:52:43.472Z,10.28
2022-11-26T21:55:10.100Z,10.56
2022-11-26T21:57:36.622Z,10.66
2022-11-26T22:00:04.730Z,10.47
2022-11-26T22:02:31.281Z,10.63
2022-11-26T22:04:58.228Z,10.20
2022-11-26T22:07:24.859Z,10.07
2022-11-26T22:09:51.419Z,10.12
2022-11-26T22:12:17.904Z,10.02
2022-11-26T22:14:44.373Z,10.20
2022-11-26T22:17:10.854Z,10.55
2022-11-26T22:19:37.766Z,10.43
2022-11-26T22:22:04.737Z,11.00
2022-11-26T22:24:31.436Z,10.69
2022-11-26T22:26:59.261Z,11.11
2022-11-26T22:29:25.757Z,10.83
2022-11-26T22:31:52.303Z,11.21
2022-11-26T22:34:21.813Z,11.15
2022-11-26T22:36:48.362Z,10.31
2022-11-26T22:39:16.776Z,10.79
2022-11-26T22:41:44.287Z,11.03
2022-11-26T22:44:11.094Z,11.20
2022-11-26T22:46:41.013Z,11.24
2022-11-26T22:49:10.323Z,11.02
2022-11-26T22:51:36.880Z,10.97
2022-11-26T22:54:07.085Z,11.08
2022-11-26T22:56:34.287Z,10.90
2022-11-26T22:59:01.488Z,10.70
2022-11-26T23:01:30.681Z,10.37
2022-11-26T23:03:58.958Z,10.24
2022-11-26T23:06:29.834Z,10.44
2022-11-26T23:08:57.603Z,10.28
2022-11-26T23:11:26.550Z,9.94
2022-11-26T23:13:53.475Z,10.45
2022-11-26T23:16:22.315Z,10.43
2022-11-26T23:18:48.867Z,10.17
2022-11-26T23:21:19.127Z,10.49
2022-11-26T23:23:46.175Z,10.05
2022-11-26T23:26:27.521Z,9.73
2022-11-26T23:28:55.829Z,9.83
2022-11-26T23:31:24.702Z,10.07
2022-11-26T23:33:51.393Z,10.12
2022-11-26T23:36:19.101Z,10.30
2022-11-26T23:38:46.102Z,10.03
2022-11-26T23:41:12.587Z,9.86
2022-11-26T23:43:39.668Z,9.81
2022-11-26T23:46:15.586Z,9.85
2022-11-26T23:48:42.867Z,9.80
2022-11-26T23:51:11.933Z,9.21
2022-11-26T23:53:40.368Z,9.15
2022-11-26T23:56:10.725Z,9.01
2022-11-26T23:58:37.561Z,8.62
